Latest Weather Observations for Barimunya

IDW60801

Issued at 9:43 pm WST Monday 29 November 2021 (issued every 10 minutes, with the page automatically refreshed every 10 minutes)

About weather observations | Map of weather stations | Latest weather observations for WA | Other Formats
Station Details ID: 505053 Name: BARIMUNYA Lat: -22.67 Lon: 119.16 Height: 629.17 m
Data from the previous 72 hours. | See also: Recent months for locations in Western Australia
Date/Time
WST
Temp
°C
App
Temp
°C
Dew
Point
°C
Rel
Hum
%
Delta-T
°C
Wind Press
QNH
hPa
Press
MSL
hPa
Rain since
9am
mm
Dir  Spd
km/h
Gust
km/h
Spd
kts
Gust
kts
29/09:30pm 27.5 25.1 -0.5 16 13.4 SW 2 6 1 3 1013.2 1008.3 0.0
29/09:00pm 28.0 25.0 0.7 17 13.4 SE 6 7 3 4 1013.1 1008.2 0.0
29/08:30pm 29.9 26.4 -1.5 13 15.0 SE 7 9 4 5 1012.8 1007.9 0.0
29/08:00pm 30.9 27.3 -1.8 12 15.7 SE 7 11 4 6 1012.5 1007.5 0.0
29/07:30pm 32.0 29.7 -2.1 11 16.4 CALM 0 0 0 0 1012.1 1007.2 0.0
29/07:00pm 34.0 31.6 -3.3 9 17.9 CALM 0 0 0 0 1011.7 1006.8 0.0
29/06:30pm 35.7 31.9 -3.6 8 18.9 SE 7 9 4 5 1011.3 1006.4 0.0
29/06:00pm 36.9 33.2 -4.5 7 19.8 WSW 6 11 3 6 1011.0 1006.0 0.0
29/05:30pm 37.2 33.0 -4.3 7 20.0 S 9 15 5 8 1010.8 1005.8 0.0
29/05:00pm 37.6 31.9 -4.0 7 20.2 S 17 22 9 12 1010.6 1005.6 0.0
29/04:30pm 37.9 32.6 -3.8 7 20.3 SW 15 22 8 12 1010.6 1005.6 0.0
29/04:00pm 37.8 34.0 -3.9 7 20.3 E 7 19 4 10 1010.7 1005.7 0.0
29/03:30pm 37.2 31.8 -4.3 7 20.0 SSE 15 24 8 13 1011.0 1006.0 0.0
29/03:00pm 37.5 32.5 -4.1 7 20.2 NW 13 19 7 10 1011.2 1006.3 0.0
29/02:30pm 37.4 31.4 -6.2 6 20.4 WSW 17 26 9 14 1011.5 1006.6 0.0
29/02:00pm 37.3 33.6 -4.2 7 20.0 NNW 6 11 3 6 1011.8 1006.9 0.0
29/01:30pm 38.1 32.8 -3.7 7 20.4 WSW 15 32 8 17 1012.1 1007.2 0.0
29/01:00pm 37.1 32.1 -4.4 7 19.9 WSW 13 20 7 11 1012.6 1007.7 0.0
29/12:30pm 36.3 31.8 -3.2 8 19.2 W 11 17 6 9 1013.1 1008.2 0.0
29/12:00pm 35.5 30.9 -3.8 8 18.9 WNW 11 20 6 11 1013.6 1008.7 0.0
29/11:30am 34.8 30.6 -4.3 8 18.5 N 9 15 5 8 1014.3 1009.4 0.0
29/11:00am 35.3 30.9 -2.3 9 18.4 ENE 11 26 6 14 1014.7 1009.8 0.0
29/10:30am 34.3 28.7 -3.1 9 18.0 NE 17 28 9 15 1015.0 1010.1 0.0
29/10:00am 34.8 29.2 -2.7 9 18.2 ENE 17 26 9 14 1015.3 1010.4 0.0
29/09:30am 33.0 27.4 -2.6 10 17.1 ENE 17 24 9 13 1015.5 1010.7 0.0
29/09:00am 32.3 27.2 -1.9 11 16.5 ESE 15 26 8 14 1015.8 1010.9 0.0
29/08:30am 31.1 25.7 -1.6 12 15.8 ESE 17 26 9 14 1015.8 1010.9 0.0
29/08:00am 30.2 24.1 -2.3 12 15.4 ESE 20 28 11 15 1015.7 1010.8 0.0
29/07:30am 29.7 25.0 -1.6 13 15.0 E 13 20 7 11 1015.7 1010.8 0.0
29/07:00am 28.3 24.8 -1.7 14 14.2 ESE 7 9 4 5 1015.7 1010.8 0.0
29/06:30am 27.2 24.2 -1.7 15 13.5 E 4 7 2 4 1015.4 1010.6 0.0
29/06:00am 25.0 22.1 -0.9 18 12.1 E 4 7 2 4 1015.1 1010.2 0.0
29/05:30am 24.3 20.4 -1.5 18 11.9 E 9 11 5 6 1014.7 1009.8 0.0
29/05:00am 24.9 19.8 -1.8 17 12.3 ESE 15 17 8 9 1014.1 1009.2 0.0
29/04:30am 25.8 20.3 -1.9 16 12.8 ENE 17 24 9 13 1013.8 1008.9 0.0
29/04:00am 26.1 21.3 -2.5 15 13.1 ESE 13 17 7 9 1013.5 1008.6 0.0
29/03:30am 26.5 21.3 -3.1 14 13.4 SE 15 20 8 11 1013.2 1008.3 0.0
29/03:00am 27.2 21.1 -3.6 13 13.9 ESE 19 26 10 14 1012.9 1008.0 0.0
29/02:30am 27.3 21.1 -3.5 13 14.0 E 20 26 11 14 1012.8 1007.9 0.0
29/02:00am 27.3 22.0 -3.5 13 14.0 ESE 15 22 8 12 1013.1 1008.2 0.0
29/01:30am 26.6 22.8 -4.0 13 13.7 SE 7 17 4 9 1013.3 1008.4 0.0
29/01:00am 27.4 22.0 -4.5 12 14.2 ESE 15 19 8 10 1013.4 1008.5 0.0
29/12:30am 27.4 23.3 -3.4 13 14.0 ESE 9 15 5 8 1013.7 1008.8 0.0
29/12:00am 27.9 23.3 -4.1 12 14.4 SE 11 15 6 8 1014.0 1009.0 0.0
 
Date/Time
WST
Temp
°C
App
Temp
°C
Dew
Point
°C
Rel
Hum
%
Delta-T
°C
Wind Press
QNH
hPa
Press
MSL
hPa
Rain since
9am
mm
Dir  Spd
km/h
Gust
km/h
Spd
kts
Gust
kts
28/11:30pm 28.9 23.3 -3.3 12 14.8 SE 17 20 9 11 1014.2 1009.3 0.0
28/11:00pm 28.1 24.7 -0.9 15 13.9 SE 7 9 4 5 1014.3 1009.4 0.0
28/10:30pm 28.8 25.6 0.5 16 13.9 ESE 7 9 4 5 1014.3 1009.4 0.0
28/10:00pm 26.3 24.7 2.3 21 12.0 CALM 0 0 0 0 1014.3 1009.4 0.0
28/09:30pm 27.2 25.6 2.3 20 12.5 CALM 0 0 0 0 1014.2 1009.3 0.0
28/09:00pm 28.3 26.6 1.7 18 13.3 CALM 0 6 0 3 1014.0 1009.0 0.0
28/08:30pm 30.5 27.0 1.0 15 14.8 ESE 9 15 5 8 1013.7 1008.8 0.0
28/08:00pm 29.4 27.7 1.8 17 14.0 CALM 0 6 0 3 1013.3 1008.4 0.0
28/07:30pm 30.9 28.6 0.3 14 15.2 ESE 2 6 1 3 1013.2 1008.3 0.0
28/07:00pm 32.6 29.2 -0.5 12 16.4 ESE 7 7 4 4 1013.0 1008.1 0.0
28/06:30pm 34.1 31.7 -0.5 11 17.3 SE 2 9 1 5 1012.7 1007.8 0.0
28/06:00pm 35.1 30.5 -1.1 10 18.1 SSE 13 17 7 9 1012.4 1007.4 0.0
28/05:30pm 35.4 31.6 -0.8 10 18.2 ESE 9 15 5 8 1012.0 1007.1 0.0
28/05:00pm 35.8 32.6 -0.5 10 18.4 SE 6 9 3 5 1011.9 1007.0 0.0
28/04:30pm 36.4 32.3 -0.1 10 18.7 SSE 11 17 6 9 1011.9 1007.0 0.0
28/04:00pm 36.7 32.6 0.1 10 18.8 W 11 20 6 11 1011.9 1007.0 0.0
28/03:30pm 35.9 31.6 0.9 11 18.1 ESE 13 24 7 13 1012.1 1007.2 0.0
28/03:00pm 35.9 32.0 0.9 11 18.1 SSW 11 20 6 11 1012.5 1007.5 0.0
28/02:30pm 36.4 31.4 1.2 11 18.4 ENE 17 28 9 15 1012.9 1008.0 0.0
28/02:00pm 35.4 29.7 0.5 11 17.9 S 20 35 11 19 1013.2 1008.3 0.0
28/01:30pm 35.6 31.4 1.8 12 17.7 SSE 13 24 7 13 1013.7 1008.8 0.0
28/01:00pm 34.9 29.9 1.3 12 17.4 SSE 17 30 9 16 1014.2 1009.3 0.0
28/12:30pm 34.9 29.9 1.3 12 17.4 ENE 17 33 9 18 1014.6 1009.7 0.0
28/12:00pm 34.8 29.9 2.3 13 17.1 E 17 35 9 19 1015.1 1010.2 0.0
28/11:30am 34.0 29.6 2.8 14 16.5 E 15 26 8 14 1015.7 1010.8 0.0
28/11:00am 33.2 27.4 2.1 14 16.2 ESE 22 32 12 17 1016.2 1011.3 0.0
28/10:30am 32.8 27.5 2.8 15 15.7 ESE 20 32 11 17 1016.6 1011.7 0.0
28/10:00am 32.2 26.6 3.2 16 15.2 E 22 35 12 19 1016.9 1012.1 0.0
28/09:30am 30.3 24.3 3.4 18 14.0 ESE 24 41 13 22 1017.4 1012.5 0.0
28/09:00am 29.5 23.2 3.5 19 13.5 ESE 26 39 14 21 1017.5 1012.6 0.0
28/08:30am 29.3 22.5 3.3 19 13.5 ESE 28 37 15 20 1017.4 1012.5 0.0
28/08:00am 27.8 20.9 2.8 20 12.7 ESE 28 41 15 22 1017.5 1012.6 0.0
28/07:30am 27.1 20.3 2.9 21 12.3 ESE 28 39 15 21 1017.5 1012.6 0.0
28/07:00am 26.2 20.6 3.5 23 11.6 ESE 22 41 12 22 1017.4 1012.5 0.0
28/06:30am 25.5 19.4 2.9 23 11.4 SE 24 35 13 19 1017.1 1012.3 0.0
28/06:00am 24.8 19.1 2.9 24 10.9 SE 22 35 12 19 1016.8 1011.9 0.0
28/05:30am 24.3 19.1 2.5 24 10.8 SE 19 26 10 14 1016.5 1011.6 0.0
28/05:00am 24.5 18.6 2.0 23 11.0 SE 22 32 12 17 1015.9 1011.0 0.0
28/04:30am 24.7 19.3 2.2 23 11.1 SE 20 35 11 19 1015.5 1010.7 0.0
28/04:00am 25.2 19.0 2.0 22 11.4 SE 24 41 13 22 1014.9 1010.0 0.0
28/03:30am 25.8 18.4 1.8 21 11.8 ESE 30 37 16 20 1014.6 1009.7 0.0
28/03:00am 26.1 19.0 1.4 20 12.1 ESE 28 39 15 21 1014.3 1009.4 0.0
28/02:30am 26.5 19.3 1.0 19 12.5 ESE 28 44 15 24 1014.2 1009.3 0.0
28/02:00am 26.6 19.8 1.1 19 12.5 ESE 26 35 14 19 1014.3 1009.4 0.0
28/01:30am 27.2 20.1 1.6 19 12.7 ESE 28 37 15 20 1014.3 1009.4 0.0
28/01:00am 27.5 21.2 1.8 19 12.8 ESE 24 33 13 18 1014.4 1009.5 0.0
28/12:30am 27.7 22.2 2.0 19 12.9 ESE 20 30 11 16 1014.6 1009.7 0.0
28/12:00am 27.9 22.5 2.2 19 13.0 ESE 20 28 11 15 1014.7 1009.8 0.0
 
Date/Time
WST
Temp
°C
App
Temp
°C
Dew
Point
°C
Rel
Hum
%
Delta-T
°C
Wind Press
QNH
hPa
Press
MSL
hPa
Rain since
9am
mm
Dir  Spd
km/h
Gust
km/h
Spd
kts
Gust
kts
27/11:30pm 28.4 22.9 1.8 18 13.4 ESE 20 28 11 15 1015.0 1010.1 0.0
27/11:00pm 28.4 23.1 1.8 18 13.4 ESE 19 24 10 13 1015.2 1010.3 0.0
27/10:30pm 28.9 23.9 1.4 17 13.8 ESE 17 24 9 13 1015.3 1010.4 0.0
27/10:00pm 27.6 24.1 1.2 18 13.0 ESE 9 13 5 7 1015.3 1010.4 0.0
27/09:30pm 28.0 24.4 0.7 17 13.4 SE 9 11 5 6 1015.1 1010.2 0.0
27/09:00pm 28.0 25.0 0.7 17 13.4 ESE 6 7 3 4 1014.9 1010.0 0.0
27/08:30pm 29.2 25.5 -0.1 15 14.3 ESE 9 11 5 6 1014.6 1009.7 0.0
27/08:00pm 29.8 26.2 0.4 15 14.5 ESE 9 13 5 7 1014.4 1009.5 0.0
27/07:30pm 30.7 26.7 0.2 14 15.1 E 11 13 6 7 1014.1 1009.2 0.0
27/07:00pm 32.1 26.9 0.2 13 16.0 ESE 17 28 9 15 1013.6 1008.7 0.0
27/06:30pm 32.9 27.7 -0.2 12 16.5 E 17 26 9 14 1013.2 1008.3 0.0
27/06:00pm 33.7 27.4 -0.8 11 17.2 ESE 22 33 12 18 1012.9 1008.0 0.0
27/05:30pm 34.6 29.0 -0.1 11 17.6 ESE 19 32 10 17 1012.6 1007.7 0.0
27/05:00pm 34.7 29.1 -0.1 11 17.6 E 19 26 10 14 1012.4 1007.4 0.0
27/04:30pm 34.8 28.6 0.0 11 17.7 E 22 35 12 19 1012.3 1007.3 0.0
27/04:00pm 35.1 29.3 0.2 11 17.8 ESE 20 33 11 18 1012.3 1007.3 0.0
27/03:30pm 35.7 29.3 0.7 11 18.1 ESE 24 39 13 21 1012.4 1007.4 0.0
27/03:00pm 35.2 29.8 1.5 12 17.6 E 19 35 10 19 1012.5 1007.5 0.0
27/02:30pm 34.8 29.4 1.2 12 17.4 ESE 19 41 10 22 1013.0 1008.1 0.0
27/02:00pm 34.5 28.7 2.1 13 17.0 E 22 33 12 18 1013.2 1008.3 0.0
27/01:30pm 34.7 29.1 3.3 14 16.8 E 22 37 12 20 1013.7 1008.8 0.0
27/01:00pm 33.7 28.7 3.5 15 16.1 E 19 35 10 19 1014.0 1009.0 0.0
27/12:30pm 32.9 27.4 3.8 16 15.5 E 22 37 12 20 1014.5 1009.6 0.0
27/12:00pm 32.0 27.1 3.9 17 14.9 ESE 19 33 10 18 1015.0 1010.1 0.0
27/11:30am 32.5 27.1 4.3 17 15.1 SE 22 35 12 19 1015.4 1010.6 0.0
27/11:00am 32.2 26.1 4.9 18 14.8 ESE 26 39 14 21 1015.9 1011.0 0.0
27/10:30am 31.8 26.0 6.1 20 14.1 ESE 26 35 14 19 1016.3 1011.4 0.0
27/10:00am 30.6 23.9 5.8 21 13.5 ESE 30 44 16 24 1016.6 1011.7 0.0
27/09:30am 29.5 22.4 5.6 22 12.9 ESE 32 43 17 23 1016.9 1012.1 0.0
27/09:00am 28.6 21.5 5.5 23 12.4 ESE 32 43 17 23 1016.9 1012.1 0.0
27/08:30am 27.2 19.5 5.5 25 11.5 ESE 35 48 19 26 1017.0 1012.2 0.0
27/08:00am 26.8 19.2 5.7 26 11.2 ESE 35 44 19 24 1017.4 1012.5 0.0
27/07:30am 25.9 18.8 5.5 27 10.8 ESE 32 44 17 24 1017.4 1012.5 0.0
27/07:00am 25.3 18.2 5.5 28 10.4 ESE 32 43 17 23 1017.2 1012.4 0.0
27/06:30am 24.6 17.5 5.4 29 10.0 ESE 32 46 17 25 1017.1 1012.3 0.0
27/06:00am 24.2 17.8 5.1 29 9.9 ESE 28 39 15 21 1016.9 1012.1 0.0
27/05:30am 23.7 17.3 5.1 30 9.6 ESE 28 35 15 19 1016.5 1011.6 0.0
27/05:00am 23.6 17.9 5.0 30 9.6 ESE 24 33 13 18 1016.2 1011.3 0.0
27/04:30am 24.0 18.8 5.4 30 9.7 ESE 22 32 12 17 1015.9 1011.0 0.0
27/04:00am 24.2 19.0 5.5 30 9.8 ESE 22 30 12 16 1015.5 1010.7 0.0
27/03:30am 24.4 18.9 5.7 30 9.8 ESE 24 33 13 18 1015.3 1010.4 0.0
27/03:00am 24.6 19.2 6.4 31 9.7 ESE 24 33 13 18 1015.4 1010.6 0.0
27/02:30am 24.9 19.4 6.1 30 10.0 ESE 24 33 13 18 1015.3 1010.4 0.0
27/02:00am 25.2 20.1 5.9 29 10.2 ESE 22 32 12 17 1015.4 1010.6 0.0
27/01:30am 25.5 20.0 5.7 28 10.5 ESE 24 30 13 16 1015.3 1010.4 0.0
27/01:00am 25.8 21.0 5.4 27 10.7 ESE 20 28 11 15 1015.4 1010.6 0.0
27/12:30am 26.0 21.6 4.5 25 11.2 ESE 17 24 9 13 1015.5 1010.7 0.0
27/12:00am 26.4 21.3 4.2 24 11.5 ESE 20 28 11 15 1015.4 1010.6 0.0
 
Date/Time
WST
Temp
°C
App
Temp
°C
Dew
Point
°C
Rel
Hum
%
Delta-T
°C
Wind Press
QNH
hPa
Press
MSL
hPa
Rain since
9am
mm
Dir  Spd
km/h
Gust
km/h
Spd
kts
Gust
kts
26/11:30pm 26.8 22.3 4.0 23 11.8 ESE 17 26 9 14 1015.7 1010.8 0.0
26/11:00pm 26.7 22.1 3.9 23 11.7 ESE 17 24 9 13 1015.9 1011.0 0.0
26/10:30pm 26.5 22.5 3.1 22 11.9 SE 13 19 7 10 1015.9 1011.0 0.0
26/10:00pm 27.2 22.9 3.0 21 12.3 ESE 15 19 8 10 1016.0 1011.1 0.0

Other formats

Comma delimited format used in spreadsheet applications
http://www.bom.gov.au/fwo/IDW60801/IDW60801.99313.axf

JavaScript Object Notation format (JSON) in row-major order
http://www.bom.gov.au/fwo/IDW60801/IDW60801.99313.json

Data quality

Most of these data are generated automatically and are frequently updated. Quality checks on data are not normally performed. It is possible for incorrect values to appear. Refer to information at About Latest Weather Observations and please check the disclaimer before using these data.